This is the latest recevied weather packets stored in our database for station/object PI8ANH-13. If no packets are shown the sender has not sent any weather packets the latest 10 day(s).
| Time | Temp. | Humidity | Pressure | Rain* | Wind** | Luminosity | Snow |
|---|---|---|---|---|---|---|---|
| 1777461298 | 16.11° C | 31% | 1027 hPa | - | - | - | - |
| 1777460398 | 16.11° C | 31% | 1027 hPa | - | - | - | - |
| 1777459498 | 16.11° C | 31% | 1027 hPa | - | - | - | - |
| 1777458598 | 15° C | 31% | 1027 hPa | - | - | - | - |
| 1777457698 | 15° C | 31% | 1027 hPa | - | - | - | - |
| 1777456798 | 13.89° C | 38% | 1027 hPa | - | - | - | - |
| 1777455898 | 13.89° C | 38% | 1027 hPa | - | - | - | - |
| 1777454998 | 13.89° C | 38% | 1027 hPa | - | - | - | - |
| 1777454098 | 13.89° C | 38% | 1027 hPa | - | - | - | - |
| 1777453198 | 12.22° C | 41% | 1027 hPa | - | - | - | - |
| 1777452298 | 12.22° C | 41% | 1027 hPa | - | - | - | - |
| 1777451398 | 12.22° C | 41% | 1027 hPa | - | - | - | - |
| 1777450498 | 12.22° C | 41% | 1027 hPa | - | - | - | - |
| 1777449598 | 11.11° C | 47% | 1027 hPa | - | - | - | - |
| 1777448698 | 11.11° C | 47% | 1027 hPa | - | - | - | - |
| 1777447798 | 10° C | 46% | 1027 hPa | - | - | - | - |
| 1777446898 | 10° C | 46% | 1027 hPa | - | - | - | - |
| 1777445998 | 7.78° C | 49% | 1027 hPa | - | - | - | - |
| 1777445098 | 7.78° C | 49% | 1027 hPa | - | - | - | - |
| 1777444198 | 7.78° C | 49% | 1026 hPa | - | - | - | - |
| 1777443298 | 7.78° C | 49% | 1026 hPa | - | - | - | - |
| 1777442398 | 7.22° C | 53% | 1026 hPa | - | - | - | - |
| 1777441498 | 7.22° C | 53% | 1026 hPa | - | - | - | - |
| 1777440598 | 6.11° C | 57% | 1026 hPa | - | - | - | - |
| 1777439698 | 6.11° C | 57% | 1026 hPa | - | - | - | - |
* Rain since midnight (hover to see other rain measurements)
** Current wind speed in m/s (hover to see current wind gust speed)